createdAt,value
2019-02-21T00:01:40.500Z,7.20
2019-02-21T00:04:11.804Z,7.10
2019-02-21T00:09:14.921Z,7.00
2019-02-21T00:11:47.350Z,7.10
2019-02-21T00:21:50.441Z,7.10
2019-02-21T00:24:21.637Z,7.00
2019-02-21T00:29:25.615Z,7.00
2019-02-21T00:31:58.724Z,6.90
2019-02-21T00:34:29.871Z,6.90
2019-02-21T00:37:01.577Z,6.80
2019-02-21T00:39:34.546Z,6.70
2019-02-21T00:42:04.822Z,6.60
2019-02-21T00:44:35.953Z,6.60
2019-02-21T00:52:09.988Z,6.60
2019-02-21T00:54:42.324Z,6.60
2019-02-21T00:59:43.197Z,6.50
2019-02-21T01:02:13.401Z,6.50
2019-02-21T01:04:43.601Z,6.50
2019-02-21T01:07:14.654Z,6.40
2019-02-21T01:09:45.037Z,6.40
2019-02-21T01:12:16.305Z,6.40
2019-02-21T01:17:17.195Z,6.40
2019-02-21T01:19:48.270Z,6.40
2019-02-21T01:27:22.697Z,6.40
2019-02-21T01:29:53.802Z,6.40
2019-02-21T01:39:56.293Z,6.40
2019-02-21T01:47:30.650Z,6.30
2019-02-21T01:57:33.332Z,6.20
2019-02-21T02:00:07.638Z,6.20
2019-02-21T02:02:38.720Z,6.10
2019-02-21T02:10:15.429Z,6.10
2019-02-21T02:20:19.577Z,6.20
2019-02-21T02:30:24.894Z,6.20
2019-02-21T02:38:00.420Z,6.30
2019-02-21T02:50:38.553Z,6.40
2019-02-21T02:53:11.586Z,6.30
2019-02-21T03:00:45.322Z,6.30
2019-02-21T03:05:47.709Z,6.30
2019-02-21T03:08:18.894Z,6.40
2019-02-21T03:16:09.457Z,6.40
2019-02-21T03:31:14.698Z,6.40
2019-02-21T03:33:47.087Z,6.50
2019-02-21T03:36:18.337Z,6.50
2019-02-21T03:48:53.626Z,6.60
2019-02-21T03:58:55.634Z,6.60
2019-02-21T04:01:29.005Z,6.60
2019-02-21T04:03:59.269Z,6.40
2019-02-21T04:06:30.431Z,6.40
2019-02-21T04:09:01.533Z,6.50
2019-02-21T04:34:04.349Z,6.20
2019-02-21T04:36:38.224Z,6.20
2019-02-21T04:39:09.326Z,6.20
2019-02-21T04:49:10.345Z,6.20
2019-02-21T04:51:43.701Z,6.20
2019-02-21T04:54:13.969Z,6.10
2019-02-21T04:59:17.002Z,6.10
2019-02-21T05:09:19.557Z,6.10
2019-02-21T05:11:49.833Z,6.10
2019-02-21T05:16:51.674Z,6.20
2019-02-21T05:24:25.315Z,6.20
2019-02-21T05:27:02.322Z,6.20
2019-02-21T05:32:09.778Z,6.20
2019-02-21T05:37:17.801Z,6.20
2019-02-21T05:39:53.044Z,6.10
2019-02-21T05:42:31.670Z,6.10
2019-02-21T05:55:50.419Z,6.10
2019-02-21T06:06:31.728Z,5.90
2019-02-21T06:19:48.098Z,5.80
2019-02-21T06:30:13.929Z,5.80
2019-02-21T06:32:44.189Z,5.80
2019-02-21T06:35:15.228Z,5.80
2019-02-21T06:52:51.723Z,5.90
2019-02-21T06:57:52.933Z,5.80
2019-02-21T07:00:24.193Z,5.90
2019-02-21T07:02:54.499Z,5.80
2019-02-21T07:07:55.809Z,5.90
2019-02-21T07:10:35.713Z,5.90
2019-02-21T07:15:38.757Z,5.90
2019-02-21T07:18:11.128Z,6.00
2019-02-21T07:20:44.361Z,6.00
2019-02-21T07:28:21.879Z,6.20
2019-02-21T07:33:28.286Z,7.00
2019-02-21T07:35:58.504Z,8.40
2019-02-21T07:38:32.006Z,9.30
2019-02-21T07:41:02.229Z,10.30
2019-02-21T07:48:38.132Z,12.40
2019-02-21T07:51:13.428Z,12.90
2019-02-21T07:56:15.232Z,13.70
2019-02-21T07:58:46.417Z,13.90
2019-02-21T08:01:17.608Z,14.20
2019-02-21T08:06:23.212Z,14.60
2019-02-21T08:08:54.262Z,14.70
2019-02-21T08:11:24.622Z,14.90
2019-02-21T08:13:56.065Z,15.00
2019-02-21T08:16:26.259Z,15.10
2019-02-21T08:24:01.135Z,15.30
2019-02-21T08:36:36.933Z,15.50
2019-02-21T08:41:40.660Z,15.60
2019-02-21T08:44:11.828Z,15.60
2019-02-21T08:49:15.081Z,15.60
2019-02-21T08:54:15.979Z,15.60
2019-02-21T08:59:19.588Z,15.70
2019-02-21T09:01:50.801Z,15.70
2019-02-21T09:04:27.408Z,15.70
2019-02-21T09:06:54.879Z,15.70
2019-02-21T09:09:26.854Z,15.60
2019-02-21T09:16:57.011Z,15.70
2019-02-21T09:24:39.121Z,15.80
2019-02-21T09:27:04.096Z,15.80
2019-02-21T09:34:34.561Z,15.80
2019-02-21T09:37:05.532Z,15.80
2019-02-21T09:39:36.943Z,15.80
2019-02-21T09:49:39.311Z,15.90
2019-02-21T09:52:10.505Z,15.90
2019-02-21T09:54:40.736Z,15.90
2019-02-21T09:59:44.474Z,15.90
2019-02-21T10:02:14.745Z,15.90
2019-02-21T10:04:47.229Z,15.90
2019-02-21T10:07:20.075Z,16.00
2019-02-21T10:09:51.300Z,16.00
2019-02-21T10:14:55.278Z,16.00
2019-02-21T10:19:57.187Z,16.10
2019-02-21T10:22:29.112Z,16.30
2019-02-21T10:30:01.634Z,16.40
2019-02-21T10:40:09.841Z,16.50
2019-02-21T10:45:18.433Z,16.60
2019-02-21T10:47:48.729Z,16.70
2019-02-21T11:02:59.255Z,16.30
2019-02-21T11:05:30.431Z,16.30
2019-02-21T11:08:00.606Z,16.20
2019-02-21T11:10:32.249Z,16.20
2019-02-21T11:20:35.680Z,16.20
2019-02-21T11:25:37.810Z,16.20
2019-02-21T11:38:11.001Z,16.20
2019-02-21T11:43:14.510Z,16.10
2019-02-21T11:45:53.467Z,16.20
2019-02-21T11:48:18.841Z,16.20
2019-02-21T11:50:50.745Z,16.20
2019-02-21T11:53:21.896Z,16.20
2019-02-21T12:08:29.915Z,16.20
2019-02-21T12:11:01.133Z,16.20
2019-02-21T12:16:02.927Z,16.20
2019-02-21T12:21:03.836Z,16.20
2019-02-21T12:26:08.133Z,16.20
2019-02-21T12:34:01.489Z,16.20
2019-02-21T12:36:32.642Z,16.30
2019-02-21T12:39:02.833Z,16.20
2019-02-21T12:41:34.494Z,16.20
2019-02-21T12:49:06.917Z,16.30
2019-02-21T12:51:38.016Z,16.20
2019-02-21T12:56:41.299Z,16.30
2019-02-21T12:59:11.509Z,16.30
2019-02-21T13:01:42.643Z,16.30
2019-02-21T13:04:12.773Z,16.30
2019-02-21T13:06:42.915Z,16.20
2019-02-21T13:09:18.063Z,16.30
2019-02-21T13:16:50.642Z,16.30
2019-02-21T13:29:23.896Z,16.30
2019-02-21T13:31:55.057Z,16.30
2019-02-21T13:34:27.530Z,16.30
2019-02-21T13:36:58.669Z,16.30
2019-02-21T13:39:29.794Z,16.30
2019-02-21T13:47:03.136Z,16.30
2019-02-21T13:57:07.790Z,16.30
2019-02-21T13:59:39.026Z,16.30
2019-02-21T14:09:46.809Z,16.20
2019-02-21T14:19:49.566Z,16.20
2019-02-21T14:22:21.550Z,16.20
2019-02-21T14:24:52.762Z,16.30
2019-02-21T14:27:23.827Z,16.20
2019-02-21T14:29:54.963Z,16.30
2019-02-21T14:37:26.942Z,16.20
2019-02-21T14:52:30.480Z,16.30
2019-02-21T14:55:00.667Z,16.20
2019-02-21T14:57:40.550Z,16.30
2019-02-21T15:05:10.031Z,16.20
2019-02-21T15:12:40.819Z,16.20
2019-02-21T15:15:22.095Z,16.30
2019-02-21T15:22:53.909Z,16.20
2019-02-21T15:27:54.450Z,16.20
2019-02-21T15:38:02.448Z,16.00
2019-02-21T15:40:32.688Z,16.20
2019-02-21T15:53:06.594Z,16.20
2019-02-21T15:58:07.758Z,16.30
2019-02-21T16:00:38.923Z,16.30
2019-02-21T16:05:39.826Z,15.20
2019-02-21T16:10:43.786Z,14.00
2019-02-21T16:15:45.453Z,13.20
2019-02-21T16:30:50.887Z,12.10
2019-02-21T16:33:22.930Z,12.00
2019-02-21T16:35:53.051Z,12.10
2019-02-21T16:46:08.074Z,12.40
2019-02-21T16:51:08.318Z,12.40
2019-02-21T16:58:42.866Z,12.40
2019-02-21T17:06:16.910Z,12.40
2019-02-21T17:08:48.917Z,12.40
2019-02-21T17:13:48.861Z,12.40
2019-02-21T17:18:51.472Z,12.40
2019-02-21T17:21:23.770Z,12.30
2019-02-21T17:31:26.960Z,12.40
2019-02-21T17:39:03.279Z,12.40
2019-02-21T17:41:34.442Z,12.30
2019-02-21T17:46:35.318Z,12.20
2019-02-21T17:49:05.508Z,12.20
2019-02-21T18:01:38.586Z,11.90
2019-02-21T18:06:38.778Z,11.90
2019-02-21T18:11:42.838Z,11.80
2019-02-21T18:14:14.793Z,11.80
2019-02-21T18:24:16.644Z,11.60
2019-02-21T18:26:47.957Z,11.60
2019-02-21T18:29:21.092Z,11.50
2019-02-21T18:31:52.845Z,11.50
2019-02-21T18:34:24.080Z,11.50
2019-02-21T18:39:25.866Z,11.50
2019-02-21T18:41:57.838Z,11.50
2019-02-21T18:52:00.056Z,11.40
2019-02-21T18:57:00.912Z,11.50
2019-02-21T18:59:34.435Z,11.40
2019-02-21T19:04:37.466Z,11.50
2019-02-21T19:09:39.370Z,11.40
2019-02-21T19:22:18.182Z,11.50
2019-02-21T19:24:48.333Z,11.50
2019-02-21T19:27:19.458Z,11.50
2019-02-21T19:32:20.446Z,11.50
2019-02-21T19:37:21.388Z,11.50
2019-02-21T19:39:54.192Z,11.50
2019-02-21T19:47:28.654Z,11.50
2019-02-21T19:55:05.819Z,11.50
2019-02-21T19:57:38.725Z,11.50
2019-02-21T20:02:49.671Z,11.40
2019-02-21T20:15:28.397Z,11.30
2019-02-21T20:35:32.366Z,11.00
2019-02-21T20:40:32.657Z,10.90
2019-02-21T20:43:07.568Z,10.90
2019-02-21T20:53:11.020Z,10.90
2019-02-21T20:55:44.483Z,10.90
2019-02-21T21:03:17.584Z,10.80
2019-02-21T21:05:47.888Z,10.70
2019-02-21T21:08:21.226Z,10.60
2019-02-21T21:13:22.175Z,10.60
2019-02-21T21:20:55.130Z,10.70
2019-02-21T21:33:27.441Z,10.50
2019-02-21T21:35:58.602Z,10.50
2019-02-21T21:43:30.552Z,10.40
2019-02-21T21:51:05.132Z,10.40
2019-02-21T21:53:36.237Z,10.30
2019-02-21T22:01:07.360Z,10.40
2019-02-21T22:06:09.497Z,10.40
2019-02-21T22:11:09.586Z,10.40
2019-02-21T22:18:39.344Z,10.50
2019-02-21T22:23:42.577Z,10.50
2019-02-21T22:26:12.837Z,10.40
2019-02-21T22:28:44.020Z,10.50
2019-02-21T22:31:15.145Z,10.40
2019-02-21T22:33:47.228Z,10.40
2019-02-21T22:36:20.140Z,10.50
2019-02-21T22:38:51.341Z,10.40
2019-02-21T22:41:21.517Z,10.40
2019-02-21T22:48:54.016Z,10.50
2019-02-21T22:56:26.586Z,10.60
2019-02-21T22:58:57.733Z,10.60
2019-02-21T23:01:30.141Z,10.50
2019-02-21T23:06:53.627Z,10.50
2019-02-21T23:09:27.941Z,10.60
2019-02-21T23:14:29.298Z,10.50
2019-02-21T23:27:03.524Z,10.60
2019-02-21T23:29:36.473Z,10.60
2019-02-21T23:37:09.846Z,10.50
2019-02-21T23:42:14.320Z,10.50
2019-02-21T23:49:46.997Z,10.60
2019-02-21T23:54:48.845Z,10.60
2019-02-21T23:59:51.835Z,10.50
